Terminal Aerodrome Forecast
Issued by NWS

Home | Current Version | Previous Version | Text Only | Print | Product List | Glossary On
Versions: 1 2 3 4 5 6 7 8 9 10 11 12 13 14 15 16
000
FTUS43 KGRR 190429 AAA
TAFMKG
TAF AMD
KMKG 190429Z 1904/1924 VRB03KT P6SM SCT040 BKN080
      TEMPO 1904/1906 6SM -RA OVC040
     FM190600 30006KT P6SM BKN080
     FM191600 28009KT P6SM BKN040=

USA.gov is the U.S. government's official web portal to all federal, state and local government web resources and services.